Time;durP1;ratioP1;P1;durP2;ratioP2;P2;SDS_P1;SDS_P2;PMS_P1;PMS_P2;Temp;Humidity;BMP_temperature;BMP_pressure;BME280_temperature;BME280_humidity;BME280_pressure;Samples;Min_cycle;Max_cycle;Signal;HPM_P1;HPM_P2
2023/04/08 00:01:38;;;;;;;2.75;1.98;;;8.80;57.50;;;4.04;95.86;95722.56;5014038;28;20025;-49
2023/04/08 00:04:04;;;;;;;2.35;1.88;;;8.90;57.60;;;4.06;95.36;95720.53;5014898;28;20108;-49
2023/04/08 00:06:30;;;;;;;3.00;2.50;;;8.90;57.60;;;4.07;95.52;95720.28;5015289;28;20104;-49
2023/04/08 00:08:56;;;;;;;3.15;2.45;;;8.90;58.30;;;4.10;95.30;95719.84;5014045;28;20029;-48
2023/04/08 00:11:22;;;;;;;3.25;2.42;;;8.90;57.70;;;4.11;94.81;95724.13;5015138;28;20499;-48
2023/04/08 00:13:48;;;;;;;2.53;2.33;;;8.90;57.70;;;4.14;95.18;95731.59;5014023;28;20488;-48
2023/04/08 00:16:14;;;;;;;2.35;1.80;;;9.00;57.70;;;4.17;95.39;95723.25;5014835;28;20025;-49
2023/04/08 00:18:40;;;;;;;4.82;2.40;;;9.00;58.40;;;4.21;95.10;95728.88;5014588;28;20486;-49
2023/04/08 00:21:06;;;;;;;3.13;2.60;;;9.00;57.70;;;4.24;94.79;95727.63;5027692;28;20021;-48
2023/04/08 00:23:31;;;;;;;3.13;2.15;;;9.00;57.70;;;4.27;94.68;95721.94;5014768;28;20021;-50
2023/04/08 00:25:57;;;;;;;2.50;2.05;;;9.10;57.80;;;4.27;95.16;95720.09;5013823;28;20118;-48
2023/04/08 00:28:23;;;;;;;2.75;2.55;;;9.20;57.80;;;4.30;95.19;95722.28;5014717;28;20155;-48
2023/04/08 00:30:50;;;;;;;3.25;2.50;;;9.10;57.80;;;4.33;95.09;95723.69;5014569;28;20021;-50
2023/04/08 00:33:16;;;;;;;2.28;2.00;;;9.20;57.90;;;4.34;94.71;95720.81;5013259;28;20024;-48
2023/04/08 00:35:41;;;;;;;2.90;2.47;;;9.20;57.90;;;4.30;95.53;95719.66;5014721;28;20037;-50
2023/04/08 00:38:08;;;;;;;3.72;2.80;;;9.20;57.90;;;4.35;95.52;95721.59;4995029;28;20028;-50
2023/04/08 00:40:34;;;;;;;4.00;3.10;;;9.20;57.90;;;4.34;95.45;95720.81;5013017;28;20435;-47
2023/04/08 00:43:00;;;;;;;4.00;3.00;;;9.20;57.90;;;4.35;95.31;95711.84;5014426;28;20074;-48
2023/04/08 00:45:26;;;;;;;3.90;2.92;;;9.30;58.00;;;4.38;95.48;95719.31;5013493;28;20030;-50
2023/04/08 00:47:52;;;;;;;5.68;3.25;;;9.30;58.00;;;4.39;95.38;95715.69;5014142;28;20035;-48
2023/04/08 00:50:19;;;;;;;3.05;2.67;;;9.30;58.00;;;4.38;95.18;95714.06;5013224;28;20094;-47
2023/04/08 00:52:45;;;;;;;3.17;2.88;;;9.30;58.00;;;4.38;94.84;95711.41;5014291;28;20056;-48
2023/04/08 00:55:11;;;;;;;3.78;2.90;;;9.30;57.90;;;4.38;94.68;95711.41;5014024;28;20017;-51
2023/04/08 00:57:37;;;;;;;3.05;2.35;;;9.30;58.50;;;4.36;94.95;95718.75;5012986;28;20124;-48
2023/04/08 01:00:05;;;;;;;2.78;2.42;;;9.30;57.90;;;4.34;95.25;95712.09;5012791;28;20079;-51
2023/04/08 01:02:56;;;;;;;3.72;2.80;;;9.30;58.00;;;4.34;95.36;95720.00;5011667;28;20044;-48
2023/04/08 01:05:57;;;;;;;3.80;2.97;;;9.30;58.00;;;4.33;95.38;95711.28;5012861;28;20059;-50
2023/04/08 01:08:30;;;;;;;3.60;2.90;;;9.30;58.20;;;4.35;95.22;95711.84;5012681;28;20430;-52
2023/04/08 01:11:02;;;;;;;4.30;2.83;;;9.20;58.20;;;4.38;95.25;95713.25;5013757;28;20392;-47
2023/04/08 01:13:35;;;;;;;3.58;2.35;;;9.20;58.10;;;4.37;95.30;95712.44;5012959;28;20055;-49
2023/04/08 01:16:01;;;;;;;2.45;2.22;;;9.20;58.20;;;4.35;95.13;95709.22;5012718;28;20493;-49
2023/04/08 01:18:31;;;;;;;3.08;2.58;;;9.30;58.20;;;4.35;95.14;95708.41;5013557;28;20112;-48
2023/04/08 01:20:59;;;;;;;3.92;2.85;;;9.30;58.20;;;4.31;95.43;95710.69;5012522;28;20484;-51
2023/04/08 01:24:17;;;;;;;3.22;2.55;;;9.20;58.10;;;4.31;94.80;95709.91;5012500;28;20079;-48
2023/04/08 01:26:44;;;;;;;3.38;2.50;;;9.20;58.20;;;4.26;94.60;95712.38;5011422;28;20025;-48
2023/04/08 01:29:11;;;;;;;3.10;2.58;;;9.20;58.20;;;4.21;95.07;95701.72;5012219;28;20017;-48
2023/04/08 01:31:41;;;;;;;2.22;2.03;;;9.10;58.10;;;4.17;95.56;95704.00;5011040;28;20459;-48
2023/04/08 01:34:10;;;;;;;3.42;2.65;;;9.10;58.30;;;4.09;95.62;95701.63;5012320;28;20025;-48
2023/04/08 01:36:40;;;;;;;3.00;2.70;;;9.10;58.30;;;4.04;95.93;95704.13;5012307;28;20021;-54
2023/04/08 01:39:08;;;;;;;3.83;2.70;;;9.00;58.30;;;3.97;95.91;95701.56;5010874;28;20631;-48
2023/04/08 01:41:37;;;;;;;2.55;2.35;;;9.00;58.30;;;3.90;95.76;95703.47;5011758;28;20048;-48
2023/04/08 01:44:04;;;;;;;3.70;2.70;;;8.90;58.30;;;3.84;96.68;95701.72;5011902;28;20021;-48
2023/04/08 01:46:32;;;;;;;3.33;2.95;;;8.80;58.20;;;3.80;96.81;95703.19;5012195;28;20078;-48
2023/04/08 01:49:00;;;;;;;4.40;2.60;;;8.80;58.30;;;3.72;97.33;95710.31;5012075;28;20025;-48
2023/04/08 01:51:30;;;;;;;3.45;2.95;;;8.70;58.30;;;3.64;98.44;95713.25;5010777;28;20526;-48
2023/04/08 01:53:57;;;;;;;4.40;2.60;;;8.70;58.50;;;3.59;99.11;95712.28;5013125;28;20029;-51
2023/04/08 01:56:30;;;;;;;3.17;2.65;;;8.60;58.50;;;3.65;98.79;95720.13;5010678;28;20029;-50
2023/04/08 01:59:02;;;;;;;3.30;2.33;;;8.60;58.80;;;3.67;99.66;95722.56;5011800;28;20111;-49
2023/04/08 02:01:31;;;;;;;3.72;3.05;;;8.60;58.90;;;3.67;99.78;95718.09;5012616;28;20057;-51
2023/04/08 02:04:00;;;;;;;3.80;3.17;;;8.60;58.90;;;3.68;99.60;95717.06;5008320;28;20075;-51
2023/04/08 02:06:29;;;;;;;4.07;3.30;;;8.60;59.00;;;3.70;100.00;95716.88;5008444;28;20400;-49
2023/04/08 02:08:56;;;;;;;4.63;3.17;;;8.60;59.20;;;3.74;100.00;95712.75;5018521;28;20024;-48
2023/04/08 02:11:23;;;;;;;4.03;3.35;;;8.60;59.70;;;3.77;100.00;95711.53;5011541;28;20033;-48
2023/04/08 02:13:49;;;;;;;4.07;3.38;;;8.60;59.20;;;3.79;100.00;95717.34;5011720;28;20022;-49
2023/04/08 02:16:29;;;;;;;4.53;3.40;;;8.60;59.20;;;3.82;100.00;95715.09;5012383;28;20021;-47
2023/04/08 02:19:08;;;;;;;3.40;3.08;;;8.70;59.40;;;3.81;100.00;95720.59;5011542;28;20025;-48
2023/04/08 02:21:50;;;;;;;4.28;3.30;;;8.70;59.40;;;3.87;100.00;95717.88;5011580;28;20090;-48
2023/04/08 02:24:19;;;;;;;3.50;3.17;;;8.80;59.50;;;3.89;100.00;95713.22;5011390;28;20028;-49
2023/04/08 02:26:52;;;;;;;3.97;3.33;;;8.70;59.40;;;3.92;99.95;95715.41;5011528;28;20056;-48
2023/04/08 02:29:18;;;;;;;3.50;3.20;;;8.80;59.50;;;3.89;99.98;95712.41;5012385;28;20017;-49
2023/04/08 02:31:46;;;;;;;3.35;2.33;;;8.80;59.50;;;3.90;100.00;95709.53;5026254;28;20099;-48
2023/04/08 02:34:15;;;;;;;4.13;3.05;;;8.80;59.50;;;3.91;99.89;95716.41;5012423;28;20415;-48
2023/04/08 02:36:44;;;;;;;6.50;3.70;;;8.80;59.50;;;3.91;99.69;95713.78;5012197;28;20082;-48
2023/04/08 02:39:11;;;;;;;4.25;3.58;;;8.80;59.50;;;3.91;99.21;95711.16;5011214;28;20045;-48
2023/04/08 02:41:36;;;;;;;4.07;3.45;;;8.80;60.00;;;3.91;99.23;95712.97;5012000;28;20045;-48
2023/04/08 02:44:02;;;;;;;3.45;3.03;;;8.80;59.40;;;3.92;99.28;95718.03;5011227;28;20391;-51
2023/04/08 02:46:28;;;;;;;3.38;3.00;;;8.90;59.50;;;3.93;99.34;95717.00;5011861;28;20037;-51
2023/04/08 02:48:54;;;;;;;3.45;3.05;;;8.90;59.50;;;3.94;99.21;95715.97;5012206;28;20021;-49
2023/04/08 02:51:20;;;;;;;3.92;3.38;;;8.90;59.50;;;3.94;99.26;95717.81;5010825;28;20114;-50
2023/04/08 02:53:46;;;;;;;3.63;3.20;;;8.90;59.60;;;3.96;99.38;95712.34;5011655;28;20094;-49
2023/04/08 02:56:12;;;;;;;4.22;3.70;;;8.90;59.50;;;3.95;99.38;95716.81;5010418;28;20025;-50
2023/04/08 02:58:38;;;;;;;3.72;3.28;;;8.90;59.60;;;3.95;99.61;95708.91;5011691;28;20017;-49
2023/04/08 03:01:04;;;;;;;3.38;3.05;;;8.90;59.60;;;3.99;99.34;95725.06;5011530;28;20112;-51
2023/04/08 03:03:30;;;;;;;3.67;3.30;;;8.90;59.60;;;4.01;99.39;95721.19;5010826;28;20108;-51
2023/04/08 03:05:57;;;;;;;3.55;3.10;;;8.90;59.60;;;4.04;99.15;95725.22;5012115;28;20029;-50
2023/04/08 03:08:24;;;;;;;3.72;3.30;;;8.90;59.70;;;4.05;99.36;95719.72;5009591;28;20095;-50
2023/04/08 03:10:50;;;;;;;3.38;3.03;;;8.90;59.70;;;4.04;99.49;95719.94;5011581;28;20037;-50
2023/04/08 03:13:16;;;;;;;4.07;3.67;;;9.00;59.70;;;4.08;99.29;95723.75;5011516;28;20021;-49
2023/04/08 03:15:42;;;;;;;6.20;3.67;;;9.00;59.70;;;4.09;99.59;95717.47;5010421;28;20116;-49
2023/04/08 03:18:08;;;;;;;3.47;3.17;;;9.00;59.70;;;4.11;99.28;95718.06;5011478;28;20484;-49
2023/04/08 03:20:34;;;;;;;3.97;3.55;;;9.00;59.70;;;4.11;99.18;95716.22;5009365;28;20433;-50
2023/04/08 03:23:00;;;;;;;4.60;3.45;;;9.10;59.80;;;4.10;99.41;95717.22;5011696;28;20049;-48
2023/04/08 03:25:27;;;;;;;4.35;3.78;;;9.10;59.70;;;4.12;99.52;95720.44;5010953;28;20044;-51
2023/04/08 03:27:54;;;;;;;5.47;4.13;;;9.10;59.80;;;4.15;99.42;95719.22;5010534;28;20021;-48
2023/04/08 03:30:20;;;;;;;5.15;4.38;;;9.10;59.70;;;4.12;99.42;95724.94;5011280;28;20017;-47
2023/04/08 03:32:46;;;;;;;5.97;4.22;;;9.10;59.70;;;4.14;99.59;95718.41;5010552;28;20041;-48
2023/04/08 03:35:12;;;;;;;5.60;4.25;;;9.10;59.70;;;4.12;99.40;95725.72;5011525;28;20025;-52
2023/04/08 03:37:38;;;;;;;5.20;4.18;;;9.10;59.70;;;4.18;99.60;95737.22;5010455;28;20053;-50
2023/04/08 03:40:05;;;;;;;5.45;4.38;;;9.20;59.80;;;4.22;99.21;95732.31;5011246;28;20060;-50
2023/04/08 03:42:31;;;;;;;5.10;4.60;;;9.20;59.80;;;4.23;99.11;95734.75;5026616;28;20029;-53
2023/04/08 03:44:57;;;;;;;4.80;4.32;;;9.20;59.80;;;4.24;98.73;95733.72;5010101;28;20099;-50
2023/04/08 03:47:23;;;;;;;5.28;4.65;;;9.20;59.80;;;4.26;98.62;95728.19;5011539;28;20041;-51
2023/04/08 03:49:51;;;;;;;5.20;4.30;;;9.20;59.80;;;4.27;98.47;95735.09;5010233;28;20424;-49
2023/04/08 03:52:17;;;;;;;5.38;4.38;;;9.20;59.80;;;4.28;98.78;95734.06;5009934;28;20087;-48
2023/04/08 03:54:42;;;;;;;4.28;3.80;;;9.20;59.80;;;4.30;98.83;95732.03;5011432;28;20017;-49
2023/04/08 03:57:08;;;;;;;4.47;3.90;;;9.20;59.80;;;4.32;99.02;95732.59;5009961;28;20057;-51
2023/04/08 03:59:35;;;;;;;4.82;4.00;;;9.20;59.90;;;4.34;99.03;95736.63;5011249;28;20508;-52
2023/04/08 04:02:01;;;;;;;4.47;3.88;;;9.20;59.90;;;4.34;99.11;95735.81;5001151;28;20049;-51
2023/04/08 04:04:27;;;;;;;5.30;4.28;;;9.20;59.90;;;4.36;98.86;95729.31;4997426;28;20515;-50
2023/04/08 04:06:53;;;;;;;6.25;3.90;;;9.30;60.80;;;4.34;99.14;95731.34;5007263;28;20029;-51
2023/04/08 04:09:19;;;;;;;6.80;4.20;;;9.30;60.00;;;4.36;99.51;95725.88;5009060;28;20049;-49
2023/04/08 04:11:45;;;;;;;5.38;4.50;;;9.20;60.00;;;4.35;99.19;95727.69;4991056;28;20523;-48
2023/04/08 04:14:10;;;;;;;6.38;5.05;;;9.30;60.00;;;4.35;99.24;95729.50;4995568;28;20025;-50
2023/04/08 04:16:36;;;;;;;4.95;4.38;;;9.30;60.00;;;4.35;98.94;95725.03;5010875;28;20091;-52
2023/04/08 04:19:02;;;;;;;6.35;4.90;;;9.30;60.00;;;4.35;98.84;95730.31;5010972;28;20104;-51
2023/04/08 04:21:28;;;;;;;5.78;4.97;;;9.30;60.10;;;4.36;98.83;95723.22;5010040;28;20033;-52
2023/04/08 04:23:54;;;;;;;5.40;4.65;;;9.30;60.10;;;4.33;99.19;95726.31;5010934;28;20017;-49
2023/04/08 04:26:20;;;;;;;8.40;6.25;;;9.30;60.10;;;4.32;99.19;95738.66;5009656;28;20025;-53
2023/04/08 04:28:46;;;;;;;9.10;6.60;;;9.30;60.10;;;4.32;99.12;95732.59;5006452;28;20392;-51
2023/04/08 04:31:27;;;;;;;11.52;7.45;;;9.30;60.20;;;4.37;98.49;95736.19;5008459;28;20109;-53
2023/04/08 04:33:53;;;;;;;6.10;5.35;;;9.30;60.20;;;4.35;98.72;95727.69;5004353;28;20043;-48
2023/04/08 04:36:20;;;;;;;6.88;5.53;;;9.30;60.20;;;4.38;98.70;95734.34;4996311;28;20583;-51
2023/04/08 04:38:46;;;;;;;7.25;5.40;;;9.30;60.20;;;4.37;98.27;95736.19;4997441;28;20503;-48
2023/04/08 04:41:11;;;;;;;6.65;5.72;;;9.30;60.20;;;4.32;98.73;95738.66;5012970;28;20526;-54
2023/04/08 04:43:37;;;;;;;10.52;6.40;;;9.30;60.20;;;4.27;99.35;95741.19;5013052;28;20025;-51
2023/04/08 04:46:06;;;;;;;8.43;6.65;;;9.30;60.20;;;4.24;98.87;95735.53;4994673;28;20488;-51
2023/04/08 04:48:33;;;;;;;9.63;6.88;;;9.30;60.20;;;4.24;98.40;95746.09;4994386;28;20064;-50
2023/04/08 04:51:02;;;;;;;10.63;7.63;;;9.30;60.10;;;4.27;98.57;95751.72;5005826;28;20496;-51
2023/04/08 04:53:29;;;;;;;9.43;6.70;;;9.30;60.20;;;4.25;98.27;95751.13;4996410;28;20030;-53
2023/04/08 04:55:55;;;;;;;10.32;7.05;;;9.30;60.20;;;4.28;98.31;95747.25;4996384;28;20025;-52
2023/04/08 04:58:21;;;;;;;9.07;6.95;;;9.20;60.10;;;4.30;98.52;95755.75;5013754;28;20100;-52
2023/04/08 05:00:47;;;;;;;7.63;6.40;;;9.20;60.90;;;4.31;97.93;95744.97;4995255;28;20046;-54
2023/04/08 05:03:13;;;;;;;8.70;6.93;;;9.30;60.20;;;4.30;98.18;95753.13;5002339;28;20377;-54
2023/04/08 05:05:39;;;;;;;14.02;9.73;;;9.20;60.10;;;4.30;98.19;95753.94;4994434;28;20091;-47
2023/04/08 05:08:06;;;;;;;14.75;10.13;;;9.30;60.10;;;4.29;97.86;95764.69;4998003;28;20108;-48
2023/04/08 05:10:32;;;;;;;15.50;10.30;;;9.30;60.10;;;4.27;97.68;95761.47;5000499;28;20476;-48
2023/04/08 05:12:58;;;;;;;15.23;10.43;;;9.20;60.00;;;4.29;97.51;95772.59;4993991;28;20060;-48
2023/04/08 05:15:24;;;;;;;15.80;10.65;;;9.20;60.10;;;4.29;97.35;95778.66;5008856;28;20053;-51
2023/04/08 05:17:49;;;;;;;14.32;10.30;;;9.30;60.10;;;4.25;96.78;95772.22;5013513;28;20024;-50
2023/04/08 05:20:15;;;;;;;12.73;9.15;;;9.30;60.10;;;4.30;97.13;95777.66;5012594;28;20013;-49
2023/04/08 05:22:43;;;;;;;14.32;9.75;;;9.30;60.10;;;4.34;97.28;95780.66;5013155;28;20030;-49
2023/04/08 05:25:10;;;;;;;12.35;8.60;;;9.30;60.10;;;4.35;97.49;95777.00;5013687;28;20472;-49
2023/04/08 05:27:36;;;;;;;12.27;8.95;;;9.30;60.10;;;4.34;97.05;95778.03;5011201;28;20033;-49
2023/04/08 05:30:03;;;;;;;13.20;9.77;;;9.30;60.10;;;4.32;97.11;95786.13;5013601;28;20427;-48
2023/04/08 05:32:29;;;;;;;14.05;9.20;;;9.40;60.10;;;4.33;97.35;95781.69;5012330;28;20052;-49
2023/04/08 05:34:55;;;;;;;13.38;9.20;;;9.40;60.00;;;4.37;97.06;95777.59;5013444;28;20104;-48
2023/04/08 05:37:22;;;;;;;13.63;9.85;;;9.40;60.00;;;4.41;97.18;95784.03;5012910;28;20104;-52
2023/04/08 05:39:48;;;;;;;13.88;9.50;;;9.40;60.00;;;4.44;96.89;95780.94;5012458;28;20028;-48
2023/04/08 05:42:14;;;;;;;13.07;9.52;;;9.50;60.00;;;4.45;96.83;95781.75;5013485;28;20041;-48
2023/04/08 05:44:42;;;;;;;12.32;9.45;;;9.50;60.00;;;4.50;96.35;95789.81;5008886;28;20045;-48
2023/04/08 05:47:09;;;;;;;13.50;8.93;;;9.50;60.00;;;4.49;96.13;95785.56;5012567;28;20033;-48
2023/04/08 05:49:35;;;;;;;13.02;9.45;;;9.60;59.90;;;4.53;96.35;95790.16;5004865;28;20081;-51
2023/04/08 05:52:02;;;;;;;11.52;8.68;;;9.60;59.90;;;4.59;95.96;95791.13;4991300;28;20088;-50
2023/04/08 05:54:28;;;;;;;12.70;9.13;;;9.60;59.80;;;4.60;96.17;95790.09;5003623;28;20481;-50
2023/04/08 05:56:54;;;;;;;12.90;8.40;;;9.70;59.90;;;4.62;96.53;95798.59;4993835;28;20104;-49
2023/04/08 05:59:20;;;;;;;11.88;8.82;;;9.70;59.80;;;4.67;96.17;95800.56;4993113;28;20045;-48
2023/04/08 06:01:46;;;;;;;10.52;8.98;;;9.80;59.90;;;4.72;96.32;95793.59;4991005;28;20169;-47
2023/04/08 06:04:12;;;;;;;11.30;8.52;;;9.80;59.80;;;4.76;96.45;95797.41;4998683;28;20022;-50
2023/04/08 06:06:39;;;;;;;13.00;9.55;;;9.80;59.80;;;4.80;96.42;95797.78;4993052;28;20033;-48
2023/04/08 06:09:05;;;;;;;11.20;8.65;;;9.90;59.80;;;4.87;95.96;95806.41;5005891;28;20410;-48
2023/04/08 06:11:31;;;;;;;11.43;8.88;;;9.90;59.80;;;4.90;95.45;95808.59;4990531;28;20041;-49
2023/04/08 06:13:56;;;;;;;12.45;8.75;;;10.00;59.80;;;4.89;95.47;95807.00;4992844;28;20032;-48
2023/04/08 06:16:22;;;;;;;14.05;9.40;;;10.00;59.70;;;4.96;95.47;95805.06;4975802;28;20033;-50
2023/04/08 06:18:48;;;;;;;12.10;9.20;;;10.20;59.70;;;5.00;95.10;95814.16;4989939;28;20022;-48
2023/04/08 06:21:15;;;;;;;12.57;9.80;;;10.20;59.60;;;5.04;94.05;95814.50;5001092;28;20026;-50
2023/04/08 06:23:40;;;;;;;13.25;9.70;;;10.30;60.10;;;5.15;93.77;95818.25;4992189;28;20028;-48
2023/04/08 06:26:06;;;;;;;16.38;10.40;;;10.40;59.40;;;5.21;92.85;95812.84;4995744;28;20112;-48
2023/04/08 06:28:32;;;;;;;15.18;10.95;;;10.40;59.30;;;5.26;92.01;95815.63;5011980;28;20029;-48
2023/04/08 06:30:59;;;;;;;13.27;10.27;;;10.50;59.20;;;5.33;91.85;95807.63;4991476;28;20021;-47
2023/04/08 06:33:25;;;;;;;11.38;8.57;;;10.60;59.10;;;5.40;91.47;95810.16;5005968;28;20028;-48
2023/04/08 06:35:51;;;;;;;13.85;10.13;;;10.70;59.10;;;5.48;91.14;95815.09;4993284;28;20025;-51
2023/04/08 06:38:16;;;;;;;12.13;9.13;;;10.80;59.00;;;5.56;91.02;95812.94;4993415;28;20547;-48
2023/04/08 06:40:42;;;;;;;10.48;8.07;;;10.90;58.90;;;5.66;90.58;95807.09;4994113;28;20120;-50
2023/04/08 06:43:08;;;;;;;10.77;8.43;;;11.00;58.80;;;5.71;90.50;95817.00;4990502;28;20022;-48
2023/04/08 06:45:34;;;;;;;11.40;9.02;;;11.10;58.70;;;5.82;89.27;95820.69;4997340;28;20036;-48
2023/04/08 06:48:01;;;;;;;9.48;7.60;;;11.20;58.60;;;5.94;89.66;95819.69;4994512;28;20037;-48
2023/04/08 06:50:26;;;;;;;8.23;6.93;;;11.30;58.50;;;6.00;88.32;95815.31;4996986;28;20025;-48
2023/04/08 06:52:53;;;;;;;9.05;7.13;;;11.40;58.40;;;6.08;87.95;95815.00;5011734;28;20033;-49
2023/04/08 06:55:20;;;;;;;10.35;7.32;;;11.50;58.20;;;6.09;86.91;95813.94;5009847;28;20022;-50
2023/04/08 06:57:46;;;;;;;9.30;7.10;;;11.60;58.10;;;6.19;86.98;95810.72;4991125;28;20025;-48
2023/04/08 07:00:12;;;;;;;8.23;6.97;;;11.70;57.90;;;6.30;86.31;95820.50;4991212;28;20432;-52
2023/04/08 07:02:38;;;;;;;8.95;7.03;;;11.90;57.80;;;6.43;86.14;95817.59;4995750;28;20025;-49
2023/04/08 07:05:05;;;;;;;7.40;6.45;;;12.00;57.60;;;6.59;85.66;95821.38;5009388;28;20029;-48
2023/04/08 07:07:32;;;;;;;7.78;6.38;;;12.20;57.40;;;6.76;84.29;95818.00;5011023;28;20032;-53
2023/04/08 07:09:58;;;;;;;7.13;5.97;;;12.40;57.90;;;6.89;83.84;95821.19;5005098;28;20030;-48
2023/04/08 07:12:23;;;;;;;8.07;6.22;;;12.60;57.10;;;7.01;82.42;95823.00;4992088;28;20055;-48
2023/04/08 07:14:49;;;;;;;7.82;6.22;;;12.80;56.70;;;7.19;82.17;95817.50;5001696;28;20025;-52
2023/04/08 07:17:15;;;;;;;8.27;5.93;;;13.00;56.50;;;7.33;81.32;95826.78;5011477;28;20021;-50
2023/04/08 07:19:42;;;;;;;8.52;6.40;;;13.10;56.30;;;7.52;80.40;95822.09;5009411;28;20070;-49
2023/04/08 07:22:08;;;;;;;7.82;6.45;;;13.30;56.00;;;7.68;79.07;95823.13;5010625;28;20032;-48
2023/04/08 07:24:34;;;;;;;7.20;6.25;;;13.50;56.00;;;7.92;78.77;95829.06;5011446;28;20025;-51
2023/04/08 07:27:00;;;;;;;7.80;6.25;;;13.90;55.50;;;8.29;76.89;95826.72;5010573;28;20029;-49
2023/04/08 07:29:26;;;;;;;7.78;6.38;;;14.30;55.10;;;8.61;75.15;95830.63;5011371;28;20040;-48
2023/04/08 07:31:52;;;;;;;6.82;6.03;;;14.70;54.70;;;8.88;74.09;95826.19;5009935;28;20087;-48
2023/04/08 07:34:18;;;;;;;6.82;6.00;;;15.00;54.30;;;9.05;72.54;95834.09;5011338;28;20057;-49
2023/04/08 07:36:44;;;;;;;7.75;6.32;;;15.30;53.90;;;9.13;71.49;95833.66;5011571;28;20515;-48
2023/04/08 07:39:10;;;;;;;6.75;6.05;;;15.50;53.40;;;9.32;71.30;95834.13;5010374;28;20133;-48
2023/04/08 07:41:36;;;;;;;6.80;6.10;;;15.80;52.90;;;9.47;70.49;95836.16;5009935;28;20506;-48
2023/04/08 07:44:02;;;;;;;6.97;5.90;;;15.90;52.50;;;9.51;70.22;95837.25;5010227;28;20063;-49
2023/04/08 07:46:28;;;;;;;8.38;6.82;;;16.10;52.00;;;9.62;69.47;95836.31;5010940;28;20068;-50
2023/04/08 07:48:53;;;;;;;7.40;6.60;;;16.20;51.70;;;9.62;68.53;95838.97;5011097;28;20025;-49
2023/04/08 07:51:19;;;;;;;6.68;5.97;;;16.30;51.40;;;9.60;68.95;95841.06;5010241;28;20502;-51
2023/04/08 07:53:45;;;;;;;8.48;7.03;;;16.40;51.00;;;9.66;68.81;95839.25;5011257;28;20029;-50
2023/04/08 07:56:17;;;;;;;8.13;6.25;;;16.40;50.70;;;9.61;68.95;95847.16;5010337;28;20036;-50
2023/04/08 07:58:43;;;;;;;7.20;6.50;;;16.40;50.30;;;9.60;68.27;95845.56;5011108;28;20091;-50
2023/04/08 08:01:22;;;;;;;7.65;6.85;;;16.40;50.20;;;9.47;68.33;95847.59;5010773;28;20033;-51
2023/04/08 08:03:50;;;;;;;8.95;6.97;;;16.40;49.90;;;9.69;68.66;95847.53;5004945;28;20017;-49
2023/04/08 08:06:17;;;;;;;8.55;7.25;;;16.40;49.90;;;9.70;68.24;95857.09;5009858;28;20082;-49
2023/04/08 08:08:44;;;;;;;9.40;6.63;;;16.40;50.40;;;9.88;67.69;95852.47;5010064;28;20384;-52
2023/04/08 08:11:10;;;;;;;8.05;6.78;;;16.50;49.60;;;9.87;67.14;95857.00;5011101;28;20025;-49
2023/04/08 08:13:36;;;;;;;8.80;7.40;;;16.60;49.40;;;9.70;67.65;95861.63;5010648;28;20028;-52
2023/04/08 08:16:02;;;;;;;9.43;7.47;;;16.70;49.00;;;9.98;67.23;95852.56;5014307;28;20060;-54
2023/04/08 08:18:28;;;;;;;9.43;6.63;;;16.80;48.90;;;10.19;67.22;95853.53;5014753;28;20029;-50
2023/04/08 08:20:54;;;;;;;11.40;6.93;;;17.00;48.70;;;10.45;65.81;95851.06;5014008;28;20039;-49
2023/04/08 08:23:20;;;;;;;11.25;7.03;;;17.20;48.60;;;10.32;65.36;95863.78;5014828;28;20043;-51
2023/04/08 08:25:46;;;;;;;21.80;8.38;;;17.40;48.90;;;10.66;65.27;95858.13;5014030;28;20456;-49
2023/04/08 08:28:12;;;;;;;44.15;9.32;;;17.60;48.00;;;10.97;64.72;95863.59;5014097;28;20108;-49
2023/04/08 08:30:38;;;;;;;9.80;7.25;;;17.70;47.80;;;11.20;62.85;95863.16;5014395;28;20053;-49
2023/04/08 08:33:03;;;;;;;16.80;7.35;;;18.00;47.60;;;11.58;61.94;95867.28;5013336;28;20056;-51
2023/04/08 08:35:29;;;;;;;7.75;6.95;;;18.30;47.40;;;11.80;60.47;95868.91;5014578;28;20025;-49
2023/04/08 08:37:55;;;;;;;10.23;7.57;;;18.40;46.90;;;11.53;60.57;95866.47;4991504;28;20025;-51
2023/04/08 08:40:21;;;;;;;7.88;6.80;;;18.60;46.30;;;11.59;60.79;95865.41;4992561;28;20092;-50
2023/04/08 08:42:52;;;;;;;8.77;7.32;;;18.70;45.90;;;11.75;60.25;95872.41;4992490;28;20018;-49
2023/04/08 08:45:20;;;;;;;8.20;6.78;;;18.80;45.70;;;11.95;59.71;95874.31;4993546;28;20034;-49
2023/04/08 08:47:46;;;;;;;8.07;6.68;;;18.90;45.40;;;11.80;59.43;95875.06;4994466;28;20021;-48
2023/04/08 08:50:12;;;;;;;8.40;7.07;;;18.90;45.10;;;11.91;59.35;95873.25;4997780;28;20036;-50
2023/04/08 08:52:38;;;;;;;8.20;6.85;;;19.10;45.10;;;12.08;58.65;95880.19;5014084;28;20037;-51
2023/04/08 08:55:04;;;;;;;8.40;7.50;;;19.30;44.80;;;12.18;57.97;95877.53;5013906;28;20032;-51
2023/04/08 08:57:30;;;;;;;7.75;6.95;;;19.50;44.40;;;12.23;57.64;95874.84;5013111;28;20022;-49
2023/04/08 08:59:56;;;;;;;7.50;6.43;;;19.70;44.10;;;12.47;57.81;95872.41;5014117;28;20025;-52
2023/04/08 09:02:31;;;;;;;7.90;7.10;;;19.90;43.80;;;12.74;56.87;95880.13;5013017;28;20021;-49
2023/04/08 09:05:02;;;;;;;7.68;6.95;;;20.10;43.50;;;12.62;56.89;95879.63;5013875;28;20104;-53
2023/04/08 09:07:35;;;;;;;9.60;7.32;;;20.00;43.30;;;12.65;57.07;95879.09;5014038;28;20025;-49
2023/04/08 09:10:01;;;;;;;;;;;19.90;43.10;;;12.63;56.45;95875.88;5012358;28;20021;-49
2023/04/08 09:12:27;;;;;;;7.35;6.65;;;19.70;43.60;;;12.45;55.75;95880.72;5012242;28;20364;-52
2023/04/08 09:15:09;;;;;;;7.78;6.97;;;19.70;43.20;;;12.48;56.69;95884.72;5012391;28;20022;-49
2023/04/08 09:17:40;;;;;;;7.43;6.60;;;19.60;43.00;;;12.54;57.24;95886.31;5013702;28;20492;-49
2023/04/08 09:20:12;;;;;;;12.65;6.90;;;19.60;43.10;;;12.62;56.92;95875.06;5008653;28;20028;-52
2023/04/08 09:22:52;;;;;;;7.38;6.43;;;19.60;43.00;;;12.67;56.47;95883.09;4994336;28;20028;-50
2023/04/08 09:25:24;;;;;;;7.55;6.75;;;19.60;42.90;;;12.60;56.65;95877.22;4993334;28;20095;-53
2023/04/08 09:27:51;;;;;;;7.72;7.00;;;19.70;42.80;;;12.75;55.90;95876.38;5011263;28;20108;-55
2023/04/08 09:30:18;;;;;;;7.78;7.03;;;19.70;42.70;;;12.81;55.34;95877.19;5013445;28;20028;-52
2023/04/08 09:32:56;;;;;;;6.90;6.25;;;19.80;42.50;;;12.68;55.92;95879.34;5012350;28;20051;-54
2023/04/08 09:35:24;;;;;;;7.57;6.75;;;19.80;42.20;;;12.65;55.61;95874.53;5013700;28;20087;-54
2023/04/08 09:37:51;;;;;;;6.93;6.22;;;19.70;42.20;;;12.65;55.82;95879.88;5011027;28;20110;-55
2023/04/08 09:40:17;;;;;;;7.28;6.57;;;19.60;42.20;;;12.71;55.50;95876.13;4993906;28;20028;-52
2023/04/08 09:42:49;;;;;;;7.82;7.03;;;19.50;42.20;;;12.80;54.87;95872.91;4993798;28;20029;-54
2023/04/08 09:45:17;;;;;;;7.80;7.00;;;19.30;42.00;;;12.64;54.85;95880.16;5005630;28;20036;-52
2023/04/08 09:48:02;;;;;;;6.70;6.00;;;19.20;42.00;;;12.48;55.81;95874.03;5013141;28;20045;-53
2023/04/08 09:50:36;;;;;;;7.38;6.45;;;19.00;42.00;;;12.42;55.59;95875.13;5010975;28;20154;-53
2023/04/08 09:53:43;;;;;;;7.07;6.38;;;18.90;42.10;;;12.37;55.60;95880.44;5013138;28;20392;-49
2023/04/08 09:56:12;;;;;;;7.85;7.05;;;18.80;42.10;;;11.70;57.17;95882.25;5002689;28;20037;-48
2023/04/08 09:58:53;;;;;;;8.07;7.05;;;18.70;42.00;;;11.63;57.57;95882.50;5012856;28;20026;-49
2023/04/08 10:01:36;;;;;;;7.72;7.00;;;18.70;42.10;;;11.84;57.13;95885.19;5012782;28;20025;-50
2023/04/08 10:04:11;;;;;;;7.05;6.35;;;18.70;42.00;;;11.81;56.86;95878.53;5011812;28;20029;-52
2023/04/08 10:06:40;;;;;;;7.38;6.63;;;18.80;42.00;;;11.93;56.19;95886.31;5011203;28;20030;-50
2023/04/08 10:09:07;;;;;;;7.47;6.57;;;18.90;41.80;;;11.98;56.30;95889.78;5008988;28;20057;-49
2023/04/08 10:11:35;;;;;;;6.32;5.70;;;19.10;41.60;;;12.19;56.38;95895.13;5008080;28;20034;-49
2023/04/08 10:14:01;;;;;;;7.38;6.68;;;19.30;41.40;;;12.37;55.62;95883.91;4994881;28;20142;-51
2023/04/08 10:16:28;;;;;;;7.47;6.63;;;19.50;41.30;;;12.69;54.40;95880.13;5010998;28;20079;-49
2023/04/08 10:18:55;;;;;;;7.60;6.90;;;20.20;40.90;;;13.16;54.55;95878.94;5012344;28;20479;-53
2023/04/08 10:21:49;;;;;;;7.63;6.93;;;20.90;40.20;;;13.87;52.42;95870.56;5011893;28;20064;-50
2023/04/08 10:24:17;;;;;;;8.13;7.32;;;22.00;39.50;;;14.50;49.99;95869.81;5012535;28;20112;-53
2023/04/08 10:26:45;;;;;;;7.97;7.28;;;22.90;38.60;;;15.14;48.39;95873.22;5010002;28;20029;-53
2023/04/08 10:29:30;;;;;;;6.47;5.95;;;23.70;37.60;;;15.71;46.77;95865.28;5012108;28;20305;-53
2023/04/08 10:31:56;;;;;;;7.20;6.60;;;24.50;36.60;;;16.27;45.19;95874.41;5026658;28;20029;-52